sensor_id;sensor_type;location;lat;lon;timestamp;temperature;humidity
70820;DHT22;58439;51.046;13.692;2023-05-02T00:00:50;13.60;93.10
70820;DHT22;58439;51.046;13.692;2023-05-02T00:03:17;13.60;93.10
70820;DHT22;58439;51.046;13.692;2023-05-02T00:05:44;13.60;93.10
70820;DHT22;58439;51.046;13.692;2023-05-02T00:08:11;13.60;92.90
70820;DHT22;58439;51.046;13.692;2023-05-02T00:10:39;13.60;92.90
70820;DHT22;58439;51.046;13.692;2023-05-02T00:13:06;13.60;92.80
70820;DHT22;58439;51.046;13.692;2023-05-02T00:15:33;13.60;92.80
70820;DHT22;58439;51.046;13.692;2023-05-02T00:18:00;13.60;92.80
70820;DHT22;58439;51.046;13.692;2023-05-02T00:20:27;13.60;92.80
70820;DHT22;58439;51.046;13.692;2023-05-02T00:22:55;13.60;92.80
70820;DHT22;58439;51.046;13.692;2023-05-02T00:25:23;13.60;92.80
70820;DHT22;58439;51.046;13.692;2023-05-02T00:27:50;13.60;92.80
70820;DHT22;58439;51.046;13.692;2023-05-02T00:30:17;13.60;92.80
70820;DHT22;58439;51.046;13.692;2023-05-02T00:32:45;13.60;92.90
70820;DHT22;58439;51.046;13.692;2023-05-02T00:35:12;13.60;92.80
70820;DHT22;58439;51.046;13.692;2023-05-02T00:37:40;13.60;92.60
70820;DHT22;58439;51.046;13.692;2023-05-02T00:40:07;13.60;92.60
70820;DHT22;58439;51.046;13.692;2023-05-02T00:42:35;13.60;92.70
70820;DHT22;58439;51.046;13.692;2023-05-02T00:45:03;13.60;93.00
70820;DHT22;58439;51.046;13.692;2023-05-02T00:47:33;13.60;92.70
70820;DHT22;58439;51.046;13.692;2023-05-02T00:50:00;13.60;92.50
70820;DHT22;58439;51.046;13.692;2023-05-02T00:52:29;13.60;92.40
70820;DHT22;58439;51.046;13.692;2023-05-02T01:10:54;13.50;93.60
70820;DHT22;58439;51.046;13.692;2023-05-02T01:18:43;13.40;93.90
70820;DHT22;58439;51.046;13.692;2023-05-02T01:23:37;13.40;93.70
70820;DHT22;58439;51.046;13.692;2023-05-02T01:36:52;13.30;93.50
70820;DHT22;58439;51.046;13.692;2023-05-02T01:43:13;13.30;93.60
70820;DHT22;58439;51.046;13.692;2023-05-02T01:53:15;13.30;93.70
70820;DHT22;58439;51.046;13.692;2023-05-02T02:01:21;13.40;93.60
70820;DHT22;58439;51.046;13.692;2023-05-02T02:05:01;13.40;93.70
70820;DHT22;58439;51.046;13.692;2023-05-02T02:07:39;13.30;93.70
70820;DHT22;58439;51.046;13.692;2023-05-02T02:10:34;13.30;93.70
70820;DHT22;58439;51.046;13.692;2023-05-02T02:19:16;13.30;93.80
70820;DHT22;58439;51.046;13.692;2023-05-02T02:22:51;13.30;93.70
70820;DHT22;58439;51.046;13.692;2023-05-02T02:25:30;13.40;93.90
70820;DHT22;58439;51.046;13.692;2023-05-02T02:28:00;13.40;93.60
70820;DHT22;58439;51.046;13.692;2023-05-02T02:30:27;13.40;93.60
70820;DHT22;58439;51.046;13.692;2023-05-02T02:32:54;13.30;93.60
70820;DHT22;58439;51.046;13.692;2023-05-02T02:35:22;13.30;93.60
70820;DHT22;58439;51.046;13.692;2023-05-02T02:38:18;13.30;93.70
70820;DHT22;58439;51.046;13.692;2023-05-02T02:41:12;13.30;93.70
70820;DHT22;58439;51.046;13.692;2023-05-02T02:44:03;13.30;93.70
70820;DHT22;58439;51.046;13.692;2023-05-02T02:46:57;13.30;93.50
70820;DHT22;58439;51.046;13.692;2023-05-02T02:49:47;13.30;93.50
70820;DHT22;58439;51.046;13.692;2023-05-02T03:01:23;13.30;92.50
70820;DHT22;58439;51.046;13.692;2023-05-02T03:03:54;13.30;92.60
70820;DHT22;58439;51.046;13.692;2023-05-02T03:06:23;13.30;92.10
70820;DHT22;58439;51.046;13.692;2023-05-02T03:08:51;13.30;92.10
70820;DHT22;58439;51.046;13.692;2023-05-02T03:11:24;13.30;92.10
70820;DHT22;58439;51.046;13.692;2023-05-02T03:13:53;13.20;92.20
70820;DHT22;58439;51.046;13.692;2023-05-02T03:16:38;13.20;92.40
70820;DHT22;58439;51.046;13.692;2023-05-02T03:19:11;13.20;92.60
70820;DHT22;58439;51.046;13.692;2023-05-02T03:21:39;13.20;92.60
70820;DHT22;58439;51.046;13.692;2023-05-02T03:24:17;13.10;92.70
70820;DHT22;58439;51.046;13.692;2023-05-02T03:26:45;13.10;92.90
70820;DHT22;58439;51.046;13.692;2023-05-02T03:29:17;13.00;93.00
70820;DHT22;58439;51.046;13.692;2023-05-02T03:31:44;13.00;93.20
70820;DHT22;58439;51.046;13.692;2023-05-02T03:34:11;13.00;93.30
70820;DHT22;58439;51.046;13.692;2023-05-02T03:36:39;12.90;93.40
70820;DHT22;58439;51.046;13.692;2023-05-02T03:39:06;12.80;93.60
70820;DHT22;58439;51.046;13.692;2023-05-02T03:41:34;12.80;93.80
70820;DHT22;58439;51.046;13.692;2023-05-02T03:44:06;12.80;94.00
70820;DHT22;58439;51.046;13.692;2023-05-02T03:46:33;12.80;94.10
70820;DHT22;58439;51.046;13.692;2023-05-02T03:49:04;12.70;94.10
70820;DHT22;58439;51.046;13.692;2023-05-02T03:51:31;12.70;94.20
70820;DHT22;58439;51.046;13.692;2023-05-02T03:54:00;12.60;94.50
70820;DHT22;58439;51.046;13.692;2023-05-02T03:56:32;12.60;94.40
70820;DHT22;58439;51.046;13.692;2023-05-02T03:59:33;12.60;94.60
70820;DHT22;58439;51.046;13.692;2023-05-02T04:03:22;12.50;94.90
70820;DHT22;58439;51.046;13.692;2023-05-02T04:11:12;12.40;95.20
70820;DHT22;58439;51.046;13.692;2023-05-02T04:13:41;12.40;95.60
70820;DHT22;58439;51.046;13.692;2023-05-02T04:16:08;12.30;95.70
70820;DHT22;58439;51.046;13.692;2023-05-02T04:18:37;12.40;95.90
70820;DHT22;58439;51.046;13.692;2023-05-02T04:21:07;12.40;95.80
70820;DHT22;58439;51.046;13.692;2023-05-02T04:23:37;12.40;96.00
70820;DHT22;58439;51.046;13.692;2023-05-02T04:26:05;12.40;95.70
70820;DHT22;58439;51.046;13.692;2023-05-02T04:28:48;12.40;95.70
70820;DHT22;58439;51.046;13.692;2023-05-02T04:31:15;12.40;95.60
70820;DHT22;58439;51.046;13.692;2023-05-02T04:33:44;12.50;95.20
70820;DHT22;58439;51.046;13.692;2023-05-02T04:36:12;12.50;95.00
70820;DHT22;58439;51.046;13.692;2023-05-02T04:38:42;12.50;94.90
70820;DHT22;58439;51.046;13.692;2023-05-02T04:41:11;12.50;94.80
70820;DHT22;58439;51.046;13.692;2023-05-02T04:43:43;12.60;94.70
70820;DHT22;58439;51.046;13.692;2023-05-02T04:46:12;12.60;94.70
70820;DHT22;58439;51.046;13.692;2023-05-02T04:48:39;12.60;94.60
70820;DHT22;58439;51.046;13.692;2023-05-02T04:51:08;12.70;94.20
70820;DHT22;58439;51.046;13.692;2023-05-02T04:53:37;12.70;94.20
70820;DHT22;58439;51.046;13.692;2023-05-02T04:56:04;12.70;94.20
70820;DHT22;58439;51.046;13.692;2023-05-02T04:58:34;12.70;94.10
70820;DHT22;58439;51.046;13.692;2023-05-02T05:01:05;12.70;94.00
70820;DHT22;58439;51.046;13.692;2023-05-02T05:03:33;12.80;94.00
70820;DHT22;58439;51.046;13.692;2023-05-02T05:06:00;12.80;93.90
70820;DHT22;58439;51.046;13.692;2023-05-02T05:08:29;12.90;93.70
70820;DHT22;58439;51.046;13.692;2023-05-02T05:10:56;12.90;93.30
70820;DHT22;58439;51.046;13.692;2023-05-02T05:13:24;13.00;93.20
70820;DHT22;58439;51.046;13.692;2023-05-02T05:15:52;13.00;93.10
70820;DHT22;58439;51.046;13.692;2023-05-02T05:18:22;13.00;93.10
70820;DHT22;58439;51.046;13.692;2023-05-02T05:20:49;13.00;93.10
70820;DHT22;58439;51.046;13.692;2023-05-02T05:23:16;13.00;92.90
70820;DHT22;58439;51.046;13.692;2023-05-02T05:25:43;13.00;92.50
70820;DHT22;58439;51.046;13.692;2023-05-02T05:28:13;13.00;92.60
70820;DHT22;58439;51.046;13.692;2023-05-02T05:31:06;13.00;92.60
70820;DHT22;58439;51.046;13.692;2023-05-02T05:33:35;13.10;91.90
70820;DHT22;58439;51.046;13.692;2023-05-02T05:36:10;13.10;91.90
70820;DHT22;58439;51.046;13.692;2023-05-02T05:38:54;13.10;92.00
70820;DHT22;58439;51.046;13.692;2023-05-02T05:41:21;13.20;92.10
70820;DHT22;58439;51.046;13.692;2023-05-02T05:43:57;13.20;91.80
70820;DHT22;58439;51.046;13.692;2023-05-02T05:46:26;13.20;91.80
70820;DHT22;58439;51.046;13.692;2023-05-02T05:48:53;13.30;92.00
70820;DHT22;58439;51.046;13.692;2023-05-02T05:51:21;13.30;91.20
70820;DHT22;58439;51.046;13.692;2023-05-02T05:53:48;13.30;91.30
70820;DHT22;58439;51.046;13.692;2023-05-02T05:56:18;13.40;91.20
70820;DHT22;58439;51.046;13.692;2023-05-02T05:58:54;13.40;91.20
70820;DHT22;58439;51.046;13.692;2023-05-02T06:01:21;13.40;91.40
70820;DHT22;58439;51.046;13.692;2023-05-02T06:03:48;13.50;91.50
70820;DHT22;58439;51.046;13.692;2023-05-02T06:06:17;13.60;91.20
70820;DHT22;58439;51.046;13.692;2023-05-02T06:08:44;13.70;90.40
70820;DHT22;58439;51.046;13.692;2023-05-02T06:11:28;13.80;88.60
70820;DHT22;58439;51.046;13.692;2023-05-02T06:13:56;13.90;86.20
70820;DHT22;58439;51.046;13.692;2023-05-02T06:16:23;14.00;85.80
70820;DHT22;58439;51.046;13.692;2023-05-02T06:18:53;14.00;85.50
70820;DHT22;58439;51.046;13.692;2023-05-02T06:21:20;14.10;85.00
70820;DHT22;58439;51.046;13.692;2023-05-02T06:23:56;14.20;83.60
70820;DHT22;58439;51.046;13.692;2023-05-02T06:26:23;14.20;83.00
70820;DHT22;58439;51.046;13.692;2023-05-02T06:28:50;14.20;83.40
70820;DHT22;58439;51.046;13.692;2023-05-02T06:31:17;14.30;84.00
70820;DHT22;58439;51.046;13.692;2023-05-02T06:33:44;14.30;82.40
70820;DHT22;58439;51.046;13.692;2023-05-02T06:36:13;14.40;82.00
70820;DHT22;58439;51.046;13.692;2023-05-02T06:38:40;14.40;81.00
70820;DHT22;58439;51.046;13.692;2023-05-02T06:41:12;14.40;80.60
70820;DHT22;58439;51.046;13.692;2023-05-02T06:43:43;14.40;79.70
70820;DHT22;58439;51.046;13.692;2023-05-02T06:46:11;14.40;80.30
70820;DHT22;58439;51.046;13.692;2023-05-02T06:48:38;14.30;81.20
70820;DHT22;58439;51.046;13.692;2023-05-02T06:51:05;14.30;81.10
70820;DHT22;58439;51.046;13.692;2023-05-02T06:53:32;14.30;78.70
70820;DHT22;58439;51.046;13.692;2023-05-02T06:56:00;14.40;79.00
70820;DHT22;58439;51.046;13.692;2023-05-02T06:58:29;14.50;74.60
70820;DHT22;58439;51.046;13.692;2023-05-02T07:00:56;14.50;71.20
70820;DHT22;58439;51.046;13.692;2023-05-02T07:03:24;14.50;72.00
70820;DHT22;58439;51.046;13.692;2023-05-02T07:05:51;14.50;72.50
70820;DHT22;58439;51.046;13.692;2023-05-02T07:08:18;14.50;70.80
70820;DHT22;58439;51.046;13.692;2023-05-02T07:10:47;14.60;67.90
70820;DHT22;58439;51.046;13.692;2023-05-02T07:13:14;14.70;67.50
70820;DHT22;58439;51.046;13.692;2023-05-02T07:15:42;14.80;66.70
70820;DHT22;58439;51.046;13.692;2023-05-02T07:18:09;14.90;65.60
70820;DHT22;58439;51.046;13.692;2023-05-02T07:20:36;14.90;61.60
70820;DHT22;58439;51.046;13.692;2023-05-02T07:23:04;14.90;62.60
70820;DHT22;58439;51.046;13.692;2023-05-02T07:25:31;14.90;64.10
70820;DHT22;58439;51.046;13.692;2023-05-02T07:27:59;15.00;64.70
70820;DHT22;58439;51.046;13.692;2023-05-02T07:30:26;15.00;63.50
70820;DHT22;58439;51.046;13.692;2023-05-02T07:32:53;14.80;64.70
70820;DHT22;58439;51.046;13.692;2023-05-02T07:35:20;14.70;67.50
70820;DHT22;58439;51.046;13.692;2023-05-02T07:37:47;14.50;71.00
70820;DHT22;58439;51.046;13.692;2023-05-02T07:40:14;14.50;74.00
70820;DHT22;58439;51.046;13.692;2023-05-02T07:42:42;14.40;76.40
70820;DHT22;58439;51.046;13.692;2023-05-02T07:45:10;14.40;77.90
70820;DHT22;58439;51.046;13.692;2023-05-02T07:47:37;14.50;78.90
70820;DHT22;58439;51.046;13.692;2023-05-02T07:50:04;14.50;77.90
70820;DHT22;58439;51.046;13.692;2023-05-02T07:52:32;14.50;77.70
70820;DHT22;58439;51.046;13.692;2023-05-02T07:54:59;14.50;78.30
70820;DHT22;58439;51.046;13.692;2023-05-02T07:57:27;14.60;79.50
70820;DHT22;58439;51.046;13.692;2023-05-02T07:59:54;14.70;77.60
70820;DHT22;58439;51.046;13.692;2023-05-02T08:02:23;14.70;76.90
70820;DHT22;58439;51.046;13.692;2023-05-02T08:04:52;14.60;76.90
70820;DHT22;58439;51.046;13.692;2023-05-02T08:07:20;14.60;76.60
70820;DHT22;58439;51.046;13.692;2023-05-02T08:09:47;14.50;77.50
70820;DHT22;58439;51.046;13.692;2023-05-02T08:12:14;14.60;78.80
70820;DHT22;58439;51.046;13.692;2023-05-02T08:14:41;14.60;78.80
70820;DHT22;58439;51.046;13.692;2023-05-02T08:17:09;14.80;78.40
70820;DHT22;58439;51.046;13.692;2023-05-02T08:19:36;15.10;76.20
70820;DHT22;58439;51.046;13.692;2023-05-02T08:22:03;15.30;71.90
70820;DHT22;58439;51.046;13.692;2023-05-02T08:24:30;15.50;69.30
70820;DHT22;58439;51.046;13.692;2023-05-02T08:26:57;15.60;67.80
70820;DHT22;58439;51.046;13.692;2023-05-02T08:29:24;15.90;65.60
70820;DHT22;58439;51.046;13.692;2023-05-02T08:31:51;16.20;61.50
70820;DHT22;58439;51.046;13.692;2023-05-02T08:34:19;16.30;59.60
70820;DHT22;58439;51.046;13.692;2023-05-02T08:36:46;16.30;59.60
70820;DHT22;58439;51.046;13.692;2023-05-02T08:39:13;16.30;58.20
70820;DHT22;58439;51.046;13.692;2023-05-02T08:41:40;16.30;58.30
70820;DHT22;58439;51.046;13.692;2023-05-02T08:44:07;16.30;58.20
70820;DHT22;58439;51.046;13.692;2023-05-02T08:46:40;16.20;59.00
70820;DHT22;58439;51.046;13.692;2023-05-02T08:49:09;16.10;60.40
70820;DHT22;58439;51.046;13.692;2023-05-02T08:51:37;16.10;60.60
70820;DHT22;58439;51.046;13.692;2023-05-02T08:54:08;16.20;60.70
70820;DHT22;58439;51.046;13.692;2023-05-02T08:56:36;16.30;61.40
70820;DHT22;58439;51.046;13.692;2023-05-02T08:59:05;16.40;57.20
70820;DHT22;58439;51.046;13.692;2023-05-02T09:01:34;16.40;55.10
70820;DHT22;58439;51.046;13.692;2023-05-02T09:04:03;16.30;54.80
70820;DHT22;58439;51.046;13.692;2023-05-02T09:06:31;16.30;54.10
70820;DHT22;58439;51.046;13.692;2023-05-02T09:08:59;16.40;53.00
70820;DHT22;58439;51.046;13.692;2023-05-02T09:11:27;16.50;53.40
70820;DHT22;58439;51.046;13.692;2023-05-02T09:13:54;16.50;53.60
70820;DHT22;58439;51.046;13.692;2023-05-02T09:16:25;16.50;49.80
70820;DHT22;58439;51.046;13.692;2023-05-02T09:18:54;16.50;47.90
70820;DHT22;58439;51.046;13.692;2023-05-02T09:21:34;16.60;47.80
70820;DHT22;58439;51.046;13.692;2023-05-02T09:24:19;16.70;46.80
70820;DHT22;58439;51.046;13.692;2023-05-02T09:27:01;16.80;46.70
70820;DHT22;58439;51.046;13.692;2023-05-02T09:29:31;16.70;46.40
70820;DHT22;58439;51.046;13.692;2023-05-02T09:32:04;16.70;47.60
70820;DHT22;58439;51.046;13.692;2023-05-02T09:34:32;16.90;48.70
70820;DHT22;58439;51.046;13.692;2023-05-02T09:36:59;17.00;47.80
70820;DHT22;58439;51.046;13.692;2023-05-02T09:39:28;17.10;48.60
70820;DHT22;58439;51.046;13.692;2023-05-02T09:41:57;17.00;49.00
70820;DHT22;58439;51.046;13.692;2023-05-02T09:44:27;17.00;49.20
70820;DHT22;58439;51.046;13.692;2023-05-02T09:47:03;17.20;49.10
70820;DHT22;58439;51.046;13.692;2023-05-02T09:49:44;17.60;48.50
70820;DHT22;58439;51.046;13.692;2023-05-02T09:52:14;18.10;45.60
70820;DHT22;58439;51.046;13.692;2023-05-02T09:54:43;18.20;45.20
70820;DHT22;58439;51.046;13.692;2023-05-02T09:57:12;18.10;45.20
70820;DHT22;58439;51.046;13.692;2023-05-02T09:59:40;17.80;45.60
70820;DHT22;58439;51.046;13.692;2023-05-02T10:02:08;17.40;47.00
70820;DHT22;58439;51.046;13.692;2023-05-02T10:04:38;17.30;47.90
70820;DHT22;58439;51.046;13.692;2023-05-02T10:07:06;17.20;47.70
70820;DHT22;58439;51.046;13.692;2023-05-02T10:09:42;17.00;48.40
70820;DHT22;58439;51.046;13.692;2023-05-02T10:12:13;17.00;49.00
70820;DHT22;58439;51.046;13.692;2023-05-02T10:14:44;16.90;49.80
70820;DHT22;58439;51.046;13.692;2023-05-02T10:17:21;16.90;51.10
70820;DHT22;58439;51.046;13.692;2023-05-02T10:20:02;17.00;51.10
70820;DHT22;58439;51.046;13.692;2023-05-02T10:22:33;17.10;50.60
70820;DHT22;58439;51.046;13.692;2023-05-02T10:25:02;17.20;50.60
70820;DHT22;58439;51.046;13.692;2023-05-02T10:27:30;17.20;51.00
70820;DHT22;58439;51.046;13.692;2023-05-02T10:29:59;17.30;51.30
70820;DHT22;58439;51.046;13.692;2023-05-02T10:32:27;17.20;51.00
70820;DHT22;58439;51.046;13.692;2023-05-02T10:35:02;17.30;51.10
70820;DHT22;58439;51.046;13.692;2023-05-02T10:37:33;17.30;49.80
70820;DHT22;58439;51.046;13.692;2023-05-02T10:40:03;17.40;49.30
70820;DHT22;58439;51.046;13.692;2023-05-02T10:42:37;17.40;49.40
70820;DHT22;58439;51.046;13.692;2023-05-02T10:45:12;17.50;49.50
70820;DHT22;58439;51.046;13.692;2023-05-02T10:48:19;17.70;48.80
70820;DHT22;58439;51.046;13.692;2023-05-02T10:50:54;17.70;48.70
70820;DHT22;58439;51.046;13.692;2023-05-02T10:53:34;17.60;48.80
70820;DHT22;58439;51.046;13.692;2023-05-02T10:56:20;17.40;49.50
70820;DHT22;58439;51.046;13.692;2023-05-02T10:58:49;17.20;50.70
70820;DHT22;58439;51.046;13.692;2023-05-02T11:04:01;16.70;52.60
70820;DHT22;58439;51.046;13.692;2023-05-02T11:11:50;16.60;57.30
70820;DHT22;58439;51.046;13.692;2023-05-02T11:19:25;17.10;56.40
70820;DHT22;58439;51.046;13.692;2023-05-02T11:24:48;18.00;52.60
70820;DHT22;58439;51.046;13.692;2023-05-02T11:29:58;19.70;43.50
70820;DHT22;58439;51.046;13.692;2023-05-02T11:35:16;20.60;40.40
70820;DHT22;58439;51.046;13.692;2023-05-02T11:40:21;20.70;39.10
70820;DHT22;58439;51.046;13.692;2023-05-02T11:42:50;20.40;38.80
70820;DHT22;58439;51.046;13.692;2023-05-02T11:45:17;20.10;39.70
70820;DHT22;58439;51.046;13.692;2023-05-02T11:47:45;19.70;40.50
70820;DHT22;58439;51.046;13.692;2023-05-02T11:50:14;19.30;42.50
70820;DHT22;58439;51.046;13.692;2023-05-02T11:52:43;19.30;43.70
70820;DHT22;58439;51.046;13.692;2023-05-02T11:55:13;19.30;44.00
70820;DHT22;58439;51.046;13.692;2023-05-02T11:57:40;19.40;43.90
70820;DHT22;58439;51.046;13.692;2023-05-02T12:00:09;19.80;43.10
70820;DHT22;58439;51.046;13.692;2023-05-02T12:02:44;20.40;41.60
70820;DHT22;58439;51.046;13.692;2023-05-02T12:05:13;20.90;38.30
70820;DHT22;58439;51.046;13.692;2023-05-02T12:07:42;21.30;36.10
70820;DHT22;58439;51.046;13.692;2023-05-02T12:10:12;21.60;34.80
70820;DHT22;58439;51.046;13.692;2023-05-02T12:12:41;21.30;34.60
70820;DHT22;58439;51.046;13.692;2023-05-02T12:15:12;20.90;35.90
70820;DHT22;58439;51.046;13.692;2023-05-02T12:17:41;20.60;37.10
70820;DHT22;58439;51.046;13.692;2023-05-02T12:20:10;20.10;37.80
70820;DHT22;58439;51.046;13.692;2023-05-02T12:22:38;19.30;39.60
70820;DHT22;58439;51.046;13.692;2023-05-02T12:25:06;18.60;41.60
70820;DHT22;58439;51.046;13.692;2023-05-02T12:27:34;18.10;43.40
70820;DHT22;58439;51.046;13.692;2023-05-02T12:30:01;17.90;44.80
70820;DHT22;58439;51.046;13.692;2023-05-02T12:32:31;17.90;45.70
70820;DHT22;58439;51.046;13.692;2023-05-02T12:35:01;18.70;45.60
70820;DHT22;58439;51.046;13.692;2023-05-02T12:37:38;19.90;43.20
70820;DHT22;58439;51.046;13.692;2023-05-02T12:40:14;21.10;40.00
70820;DHT22;58439;51.046;13.692;2023-05-02T12:43:05;21.70;37.30
70820;DHT22;58439;51.046;13.692;2023-05-02T12:45:36;21.50;36.80
70820;DHT22;58439;51.046;13.692;2023-05-02T12:48:25;21.20;36.50
70820;DHT22;58439;51.046;13.692;2023-05-02T12:51:01;20.80;37.20
70820;DHT22;58439;51.046;13.692;2023-05-02T12:53:42;20.70;37.50
70820;DHT22;58439;51.046;13.692;2023-05-02T12:56:17;20.30;38.10
70820;DHT22;58439;51.046;13.692;2023-05-02T12:58:50;19.80;39.70
70820;DHT22;58439;51.046;13.692;2023-05-02T13:01:31;19.30;40.40
70820;DHT22;58439;51.046;13.692;2023-05-02T13:04:03;19.00;41.40
70820;DHT22;58439;51.046;13.692;2023-05-02T13:12:44;21.20;37.90
70820;DHT22;58439;51.046;13.692;2023-05-02T13:16:09;22.30;35.50
70820;DHT22;58439;51.046;13.692;2023-05-02T13:19:07;22.90;33.90
70820;DHT22;58439;51.046;13.692;2023-05-02T13:21:40;22.90;32.10
70820;DHT22;58439;51.046;13.692;2023-05-02T13:27:58;21.70;33.20
70820;DHT22;58439;51.046;13.692;2023-05-02T13:31:21;21.20;34.20
70820;DHT22;58439;51.046;13.692;2023-05-02T13:34:19;20.90;35.10
70820;DHT22;58439;51.046;13.692;2023-05-02T13:41:46;20.10;36.60
70820;DHT22;58439;51.046;13.692;2023-05-02T13:44:45;19.60;38.50
70820;DHT22;58439;51.046;13.692;2023-05-02T13:47:35;19.20;40.20
70820;DHT22;58439;51.046;13.692;2023-05-02T13:50:05;18.80;41.20
70820;DHT22;58439;51.046;13.692;2023-05-02T13:52:38;18.40;42.30
70820;DHT22;58439;51.046;13.692;2023-05-02T13:55:06;18.20;43.40
70820;DHT22;58439;51.046;13.692;2023-05-02T13:57:34;18.00;44.30
70820;DHT22;58439;51.046;13.692;2023-05-02T14:00:01;17.80;45.40
70820;DHT22;58439;51.046;13.692;2023-05-02T14:02:31;17.60;46.90
70820;DHT22;58439;51.046;13.692;2023-05-02T14:04:58;17.40;47.80
70820;DHT22;58439;51.046;13.692;2023-05-02T14:07:25;17.30;49.20
70820;DHT22;58439;51.046;13.692;2023-05-02T14:09:52;17.40;49.90
70820;DHT22;58439;51.046;13.692;2023-05-02T14:12:19;17.60;50.10
70820;DHT22;58439;51.046;13.692;2023-05-02T14:14:49;18.70;49.10
70820;DHT22;58439;51.046;13.692;2023-05-02T14:17:17;20.40;43.80
70820;DHT22;58439;51.046;13.692;2023-05-02T14:20:49;21.80;39.20
70820;DHT22;58439;51.046;13.692;2023-05-02T14:23:20;23.60;36.00
70820;DHT22;58439;51.046;13.692;2023-05-02T14:25:55;24.00;33.50
70820;DHT22;58439;51.046;13.692;2023-05-02T14:28:31;23.90;32.40
70820;DHT22;58439;51.046;13.692;2023-05-02T14:38:21;22.00;33.60
70820;DHT22;58439;51.046;13.692;2023-05-02T14:40:55;20.60;36.50
70820;DHT22;58439;51.046;13.692;2023-05-02T14:43:26;19.60;38.90
70820;DHT22;58439;51.046;13.692;2023-05-02T14:46:05;18.90;41.00
70820;DHT22;58439;51.046;13.692;2023-05-02T14:48:32;18.30;43.80
70820;DHT22;58439;51.046;13.692;2023-05-02T14:51:02;17.80;47.80
70820;DHT22;58439;51.046;13.692;2023-05-02T14:53:30;17.30;53.60
70820;DHT22;58439;51.046;13.692;2023-05-02T14:56:11;16.80;60.50
70820;DHT22;58439;51.046;13.692;2023-05-02T14:58:49;16.30;67.40
70820;DHT22;58439;51.046;13.692;2023-05-02T15:01:20;16.00;75.30
70820;DHT22;58439;51.046;13.692;2023-05-02T15:03:48;15.80;77.20
70820;DHT22;58439;51.046;13.692;2023-05-02T15:06:32;15.60;78.60
70820;DHT22;58439;51.046;13.692;2023-05-02T15:09:01;15.40;80.60
70820;DHT22;58439;51.046;13.692;2023-05-02T15:11:29;15.20;83.80
70820;DHT22;58439;51.046;13.692;2023-05-02T15:13:59;15.10;85.70
70820;DHT22;58439;51.046;13.692;2023-05-02T15:16:27;15.00;87.80
70820;DHT22;58439;51.046;13.692;2023-05-02T15:18:55;15.00;89.10
70820;DHT22;58439;51.046;13.692;2023-05-02T15:21:22;14.90;89.80
70820;DHT22;58439;51.046;13.692;2023-05-02T15:23:49;15.00;90.20
70820;DHT22;58439;51.046;13.692;2023-05-02T15:26:17;15.10;90.30
70820;DHT22;58439;51.046;13.692;2023-05-02T15:28:44;15.10;89.50
70820;DHT22;58439;51.046;13.692;2023-05-02T15:31:12;15.10;88.00
70820;DHT22;58439;51.046;13.692;2023-05-02T15:33:39;15.10;85.70
70820;DHT22;58439;51.046;13.692;2023-05-02T15:36:07;15.00;85.70
70820;DHT22;58439;51.046;13.692;2023-05-02T15:38:34;15.10;83.70
70820;DHT22;58439;51.046;13.692;2023-05-02T15:41:05;15.10;82.60
70820;DHT22;58439;51.046;13.692;2023-05-02T15:43:33;15.10;82.30
70820;DHT22;58439;51.046;13.692;2023-05-02T15:46:01;15.20;81.80
70820;DHT22;58439;51.046;13.692;2023-05-02T15:48:30;15.10;81.60
70820;DHT22;58439;51.046;13.692;2023-05-02T15:50:59;15.10;81.70
70820;DHT22;58439;51.046;13.692;2023-05-02T15:53:27;15.10;82.30
70820;DHT22;58439;51.046;13.692;2023-05-02T15:55:55;15.10;81.90
70820;DHT22;58439;51.046;13.692;2023-05-02T15:58:33;15.00;82.40
70820;DHT22;58439;51.046;13.692;2023-05-02T16:01:01;14.90;83.50
70820;DHT22;58439;51.046;13.692;2023-05-02T16:03:28;14.80;84.90
70820;DHT22;58439;51.046;13.692;2023-05-02T16:05:58;14.70;86.40
70820;DHT22;58439;51.046;13.692;2023-05-02T16:08:27;14.70;87.10
70820;DHT22;58439;51.046;13.692;2023-05-02T16:10:54;14.70;87.40
70820;DHT22;58439;51.046;13.692;2023-05-02T16:13:22;14.60;88.20
70820;DHT22;58439;51.046;13.692;2023-05-02T16:15:49;14.50;88.50
70820;DHT22;58439;51.046;13.692;2023-05-02T16:18:21;14.40;89.20
70820;DHT22;58439;51.046;13.692;2023-05-02T16:20:55;14.40;87.60
70820;DHT22;58439;51.046;13.692;2023-05-02T16:23:23;14.30;84.70
70820;DHT22;58439;51.046;13.692;2023-05-02T16:25:58;14.30;83.50
70820;DHT22;58439;51.046;13.692;2023-05-02T16:28:26;14.30;83.20
70820;DHT22;58439;51.046;13.692;2023-05-02T16:30:54;14.40;81.60
70820;DHT22;58439;51.046;13.692;2023-05-02T16:33:21;14.40;81.10
70820;DHT22;58439;51.046;13.692;2023-05-02T16:35:51;14.40;79.20
70820;DHT22;58439;51.046;13.692;2023-05-02T16:38:26;14.40;78.30
70820;DHT22;58439;51.046;13.692;2023-05-02T16:41:01;14.40;78.80
70820;DHT22;58439;51.046;13.692;2023-05-02T16:43:30;14.30;78.10
70820;DHT22;58439;51.046;13.692;2023-05-02T16:46:15;14.20;76.20
70820;DHT22;58439;51.046;13.692;2023-05-02T16:48:44;14.20;76.70
70820;DHT22;58439;51.046;13.692;2023-05-02T16:51:11;14.10;76.10
70820;DHT22;58439;51.046;13.692;2023-05-02T16:53:39;13.90;76.40
70820;DHT22;58439;51.046;13.692;2023-05-02T16:56:06;13.90;77.80
70820;DHT22;58439;51.046;13.692;2023-05-02T16:58:33;13.80;78.00
70820;DHT22;58439;51.046;13.692;2023-05-02T17:01:04;13.80;78.30
70820;DHT22;58439;51.046;13.692;2023-05-02T17:03:31;13.70;78.50
70820;DHT22;58439;51.046;13.692;2023-05-02T17:05:59;13.70;79.00
70820;DHT22;58439;51.046;13.692;2023-05-02T17:08:27;13.70;78.40
70820;DHT22;58439;51.046;13.692;2023-05-02T17:10:55;13.70;78.40
70820;DHT22;58439;51.046;13.692;2023-05-02T17:13:23;13.70;77.80
70820;DHT22;58439;51.046;13.692;2023-05-02T17:15:50;13.70;77.50
70820;DHT22;58439;51.046;13.692;2023-05-02T17:18:18;13.60;77.50
70820;DHT22;58439;51.046;13.692;2023-05-02T17:21:03;13.60;78.20
70820;DHT22;58439;51.046;13.692;2023-05-02T17:24:15;13.50;77.90
70820;DHT22;58439;51.046;13.692;2023-05-02T17:27:13;13.50;77.30
70820;DHT22;58439;51.046;13.692;2023-05-02T17:29:40;13.50;76.30
70820;DHT22;58439;51.046;13.692;2023-05-02T17:32:15;13.40;76.40
70820;DHT22;58439;51.046;13.692;2023-05-02T17:34:52;13.40;76.30
70820;DHT22;58439;51.046;13.692;2023-05-02T17:37:19;13.40;75.70
70820;DHT22;58439;51.046;13.692;2023-05-02T17:39:46;13.40;75.40
70820;DHT22;58439;51.046;13.692;2023-05-02T17:42:15;13.40;75.70